createdAt,value
2023-05-21T00:02:51.652Z,16.24
2023-05-21T00:07:45.961Z,16.17
2023-05-21T00:12:39.233Z,16.08
2023-05-21T00:17:34.268Z,15.99
2023-05-21T00:22:27.470Z,15.98
2023-05-21T00:27:22.176Z,16.00
2023-05-21T00:32:15.569Z,15.82
2023-05-21T00:37:10.683Z,15.90
2023-05-21T00:42:04.661Z,16.02
2023-05-21T00:46:59.097Z,15.94
2023-05-21T00:51:53.178Z,15.95
2023-05-21T00:56:48.636Z,15.90
2023-05-21T01:01:41.948Z,16.00
2023-05-21T01:06:35.646Z,16.02
2023-05-21T01:11:38.855Z,15.97
2023-05-21T01:16:36.428Z,15.80
2023-05-21T01:21:31.575Z,15.93
2023-05-21T01:26:26.428Z,15.93
2023-05-21T01:31:27.726Z,15.91
2023-05-21T01:36:26.378Z,15.08
2023-05-21T01:41:21.229Z,15.81
2023-05-21T01:46:21.222Z,15.75
2023-05-21T01:51:15.028Z,15.60
2023-05-21T01:56:08.807Z,15.77
2023-05-21T02:01:02.905Z,15.72
2023-05-21T02:05:57.523Z,15.60
2023-05-21T02:10:50.885Z,14.84
2023-05-21T02:15:44.998Z,15.52
2023-05-21T02:20:39.249Z,15.42
2023-05-21T02:25:34.063Z,15.35
2023-05-21T02:30:27.566Z,15.25
2023-05-21T02:35:21.035Z,15.21
2023-05-21T02:40:14.641Z,15.18
2023-05-21T02:45:11.156Z,15.04
2023-05-21T02:50:07.941Z,14.95
2023-05-21T02:55:06.442Z,14.68
2023-05-21T02:59:59.803Z,15.01
2023-05-21T03:04:54.845Z,14.90
2023-05-21T03:09:48.567Z,14.78
2023-05-21T03:14:44.230Z,14.89
2023-05-21T03:19:37.477Z,14.94
2023-05-21T03:24:33.325Z,14.83
2023-05-21T03:29:28.681Z,14.95
2023-05-21T03:34:24.202Z,14.88
2023-05-21T03:39:17.562Z,14.95
2023-05-21T03:44:12.560Z,14.93
2023-05-21T03:49:21.352Z,14.74
2023-05-21T03:54:17.241Z,14.16
2023-05-21T03:59:10.606Z,14.64
2023-05-21T04:04:05.288Z,15.01
2023-05-21T04:08:59.436Z,15.25
2023-05-21T04:13:52.656Z,15.27
2023-05-21T04:18:45.895Z,15.35
2023-05-21T04:23:42.833Z,15.43
2023-05-21T04:28:46.049Z,15.50
2023-05-21T04:33:42.234Z,15.57
2023-05-21T04:38:37.089Z,15.66
2023-05-21T04:43:33.519Z,15.79
2023-05-21T04:48:28.848Z,15.97
2023-05-21T04:53:22.120Z,15.94
2023-05-21T04:58:19.306Z,16.26
2023-05-21T05:03:15.164Z,16.43
2023-05-21T05:08:10.291Z,16.11
2023-05-21T05:13:03.865Z,16.59
2023-05-21T05:17:57.184Z,16.81
2023-05-21T05:22:51.911Z,16.98
2023-05-21T05:27:45.106Z,17.14
2023-05-21T05:32:41.379Z,17.34
2023-05-21T05:37:34.791Z,17.53
2023-05-21T05:42:29.691Z,17.73
2023-05-21T05:47:30.276Z,17.95
2023-05-21T05:52:23.676Z,17.93
2023-05-21T05:57:16.952Z,18.20
2023-05-21T06:02:15.172Z,18.57
2023-05-21T06:07:08.944Z,18.93
2023-05-21T06:12:02.280Z,19.30
2023-05-21T06:16:55.664Z,19.64
2023-05-21T06:21:50.537Z,19.83
2023-05-21T06:26:43.998Z,20.11
2023-05-21T06:31:38.018Z,20.46
2023-05-21T06:36:32.543Z,20.66
2023-05-21T06:41:27.613Z,20.76
2023-05-21T06:46:24.354Z,21.02
2023-05-21T06:51:18.888Z,20.51
2023-05-21T06:56:13.145Z,21.32
2023-05-21T07:01:11.834Z,21.53
2023-05-21T07:06:05.332Z,21.79
2023-05-21T07:10:58.582Z,21.93
2023-05-21T07:15:52.472Z,22.03
2023-05-21T07:20:47.176Z,22.15
2023-05-21T07:25:42.441Z,22.30
2023-05-21T07:30:35.789Z,22.45
2023-05-21T07:35:31.996Z,22.61
2023-05-21T07:40:30.753Z,22.72
2023-05-21T07:45:28.728Z,22.87
2023-05-21T07:50:22.662Z,23.06
2023-05-21T07:55:16.062Z,23.36
2023-05-21T08:00:14.430Z,23.17
2023-05-21T08:05:17.594Z,23.73
2023-05-21T08:10:11.548Z,23.96
2023-05-21T08:15:06.888Z,24.35
2023-05-21T08:20:06.696Z,24.82
2023-05-21T08:25:02.787Z,25.31
2023-05-21T08:29:56.268Z,25.94
2023-05-21T08:34:49.752Z,26.55
2023-05-21T08:39:55.663Z,27.04
2023-05-21T08:44:53.348Z,27.46
2023-05-21T08:49:53.361Z,27.94
2023-05-21T08:54:48.387Z,28.13
2023-05-21T08:59:45.317Z,28.17
2023-05-21T09:04:57.094Z,28.18
2023-05-21T09:09:56.189Z,28.24
2023-05-21T09:14:51.255Z,28.07
2023-05-21T09:20:12.359Z,27.98
2023-05-21T09:25:10.798Z,27.58
2023-05-21T09:30:10.623Z,27.51
2023-05-21T09:35:15.022Z,27.42
2023-05-21T09:40:17.104Z,27.44
2023-05-21T09:45:13.580Z,27.40
2023-05-21T09:50:08.361Z,27.57
2023-05-21T09:55:02.093Z,27.89
2023-05-21T09:59:56.750Z,28.36
2023-05-21T10:04:53.056Z,28.66
2023-05-21T10:09:48.915Z,28.82
2023-05-21T10:14:47.132Z,28.83
2023-05-21T10:19:42.486Z,28.53
2023-05-21T10:24:38.383Z,28.37
2023-05-21T10:29:32.573Z,28.21
2023-05-21T10:34:26.014Z,28.48
2023-05-21T10:39:25.491Z,28.83
2023-05-21T10:44:26.637Z,28.96
2023-05-21T10:49:34.443Z,29.07
2023-05-21T10:54:48.935Z,28.94
2023-05-21T10:59:45.173Z,28.61
2023-05-21T11:04:40.267Z,28.45
2023-05-21T11:09:33.613Z,28.73
2023-05-21T11:14:33.015Z,30.04
2023-05-21T11:19:37.293Z,31.45
2023-05-21T11:24:34.669Z,31.88
2023-05-21T11:29:33.745Z,31.70
2023-05-21T11:34:29.363Z,31.34
2023-05-21T11:39:27.130Z,31.14
2023-05-21T11:44:22.851Z,30.69
2023-05-21T11:49:17.096Z,30.18
2023-05-21T11:54:12.149Z,30.02
2023-05-21T11:59:06.718Z,30.10
2023-05-21T12:04:00.607Z,29.98
2023-05-21T12:08:58.564Z,29.97
2023-05-21T12:13:52.087Z,29.57
2023-05-21T12:18:46.906Z,28.96
2023-05-21T12:23:40.064Z,28.29
2023-05-21T12:28:33.737Z,28.17
2023-05-21T12:33:34.386Z,28.69
2023-05-21T12:38:32.842Z,30.00
2023-05-21T12:43:26.181Z,30.87
2023-05-21T12:48:19.389Z,31.22
2023-05-21T12:53:13.123Z,30.92
2023-05-21T12:58:09.338Z,30.03
2023-05-21T13:03:04.656Z,29.48
2023-05-21T13:07:57.962Z,29.78
2023-05-21T13:12:51.154Z,30.75
2023-05-21T13:17:48.459Z,31.37
2023-05-21T13:22:44.278Z,30.60
2023-05-21T13:27:37.506Z,29.80
2023-05-21T13:32:30.778Z,29.00
2023-05-21T13:37:27.796Z,28.78
2023-05-21T13:42:21.357Z,28.71
2023-05-21T13:47:15.045Z,28.27
2023-05-21T13:52:09.638Z,27.79
2023-05-21T13:57:04.958Z,27.51
2023-05-21T14:01:58.245Z,28.24
2023-05-21T14:06:52.467Z,29.06
2023-05-21T14:11:45.977Z,29.90
2023-05-21T14:16:40.543Z,30.30
2023-05-21T14:21:33.726Z,30.03
2023-05-21T14:26:27.289Z,29.48
2023-05-21T14:31:21.653Z,28.96
2023-05-21T14:36:16.844Z,28.56
2023-05-21T14:41:10.047Z,28.21
2023-05-21T14:46:03.663Z,27.95
2023-05-21T14:50:56.864Z,27.73
2023-05-21T14:55:51.471Z,27.67
2023-05-21T15:00:44.711Z,27.75
2023-05-21T15:05:38.452Z,26.69
2023-05-21T15:10:31.765Z,27.66
2023-05-21T15:15:26.463Z,27.57
2023-05-21T15:20:19.796Z,27.47
2023-05-21T15:25:13.027Z,27.42
2023-05-21T15:30:07.456Z,26.91
2023-05-21T15:35:02.420Z,27.19
2023-05-21T15:39:55.806Z,27.06
2023-05-21T15:44:49.072Z,26.98
2023-05-21T15:49:42.267Z,26.76
2023-05-21T15:54:36.894Z,26.44
2023-05-21T15:59:30.148Z,26.00
2023-05-21T16:04:23.343Z,25.60
2023-05-21T16:09:17.592Z,25.07
2023-05-21T16:14:12.844Z,24.54
2023-05-21T16:19:06.312Z,24.16
2023-05-21T16:23:59.658Z,23.84
2023-05-21T16:28:53.003Z,23.56
2023-05-21T16:33:47.680Z,23.25
2023-05-21T16:38:44.805Z,23.17
2023-05-21T16:43:38.353Z,23.04
2023-05-21T16:48:32.809Z,23.00
2023-05-21T16:53:27.358Z,22.90
2023-05-21T16:58:20.486Z,22.82
2023-05-21T17:03:13.885Z,22.82
2023-05-21T17:08:08.686Z,22.72
2023-05-21T17:13:17.601Z,22.62
2023-05-21T17:18:15.145Z,22.59
2023-05-21T17:23:08.547Z,22.50
2023-05-21T17:28:03.321Z,22.43
2023-05-21T17:32:58.351Z,22.35
2023-05-21T17:37:53.330Z,22.27
2023-05-21T17:42:46.881Z,22.15
2023-05-21T17:47:41.521Z,22.03
2023-05-21T17:52:34.780Z,21.97
2023-05-21T18:02:20.971Z,21.51
2023-05-21T18:07:16.212Z,21.49
2023-05-21T18:12:09.677Z,21.49
2023-05-21T18:17:03.590Z,21.35
2023-05-21T18:21:56.894Z,21.30
2023-05-21T18:26:51.668Z,20.94
2023-05-21T18:31:45.578Z,21.14
2023-05-21T18:36:40.169Z,20.59
2023-05-21T18:41:33.510Z,21.01
2023-05-21T18:46:28.137Z,20.92
2023-05-21T18:51:21.459Z,20.89
2023-05-21T18:56:17.201Z,20.54
2023-05-21T19:01:10.528Z,20.51
2023-05-21T19:06:05.350Z,20.39
2023-05-21T19:10:58.805Z,20.51
2023-05-21T19:15:52.005Z,20.37
2023-05-21T19:20:45.535Z,20.39
2023-05-21T19:25:40.122Z,20.17
2023-05-21T19:30:36.467Z,20.20
2023-05-21T19:35:30.232Z,20.25
2023-05-21T19:40:23.826Z,20.18
2023-05-21T19:45:18.380Z,20.13
2023-05-21T19:50:12.319Z,19.90
2023-05-21T19:55:08.733Z,19.94
2023-05-21T20:00:01.945Z,20.03
2023-05-21T20:05:07.700Z,19.97
2023-05-21T20:10:03.265Z,20.01
2023-05-21T20:14:57.000Z,19.91
2023-05-21T20:19:50.354Z,19.95
2023-05-21T20:24:45.216Z,19.86
2023-05-21T20:29:38.645Z,19.86
2023-05-21T20:34:33.289Z,19.59
2023-05-21T20:39:27.928Z,19.62
2023-05-21T20:44:22.664Z,19.74
2023-05-21T20:49:17.763Z,19.70
2023-05-21T20:54:11.062Z,19.65
2023-05-21T20:59:04.226Z,19.61
2023-05-21T21:03:59.087Z,19.53
2023-05-21T21:08:52.320Z,19.48
2023-05-21T21:13:45.552Z,19.43
2023-05-21T21:18:38.673Z,19.41
2023-05-21T21:23:33.355Z,19.39
2023-05-21T21:28:26.483Z,19.37
2023-05-21T21:33:20.013Z,19.30
2023-05-21T21:38:13.176Z,18.52
2023-05-21T21:43:07.767Z,19.08
2023-05-21T21:48:00.976Z,19.10
2023-05-21T21:52:56.374Z,19.06
2023-05-21T21:57:49.493Z,18.97
2023-05-21T22:02:46.889Z,18.92
2023-05-21T22:07:42.187Z,18.84
2023-05-21T22:12:35.313Z,18.87
2023-05-21T22:17:34.484Z,18.78
2023-05-21T22:22:29.038Z,18.78
2023-05-21T22:27:22.518Z,18.73
2023-05-21T22:32:15.697Z,18.69
2023-05-21T22:37:08.860Z,18.60
2023-05-21T22:42:03.531Z,18.64
2023-05-21T22:47:00.322Z,18.61
2023-05-21T22:51:54.436Z,18.51
2023-05-21T22:56:49.384Z,17.63
2023-05-21T23:01:44.033Z,18.51
2023-05-21T23:06:37.233Z,18.45
2023-05-21T23:11:30.503Z,18.31
2023-05-21T23:16:24.196Z,18.32
2023-05-21T23:21:19.495Z,18.23
2023-05-21T23:26:12.689Z,18.09
2023-05-21T23:31:07.330Z,17.32
2023-05-21T23:36:00.534Z,17.30
2023-05-21T23:40:55.147Z,17.97
2023-05-21T23:45:48.405Z,17.96
2023-05-21T23:50:41.795Z,17.89
2023-05-21T23:55:35.145Z,16.92
